Time;durP1;ratioP1;P1;durP2;ratioP2;P2;SDS_P1;SDS_P2;PMS_P1;PMS_P2;Temp;Humidity;BMP_temperature;BMP_pressure;BME280_temperature;BME280_humidity;BME280_pressure;Samples;Min_cycle;Max_cycle;Signal;HPM_P1;HPM_P2
2021/08/02 00:00:08;;;;;;;10.48;5.25;;;;;;;14.86;89.98;97970.61;2222954;80;21320;-80
2021/08/02 00:03:10;;;;;;;9.13;5.75;;;;;;;14.89;90.36;97970.55;2194669;80;20928;-80
2021/08/02 00:06:11;;;;;;;6.30;5.35;;;;;;;14.88;89.93;97967.05;2223505;80;20917;-81
2021/08/02 00:09:13;;;;;;;6.12;5.35;;;;;;;14.88;90.18;97972.76;2222949;80;21725;-81
2021/08/02 00:12:15;;;;;;;5.12;4.72;;;;;;;14.87;90.34;97971.03;2223205;80;21331;-80
2021/08/02 00:15:16;;;;;;;5.37;4.87;;;;;;;14.89;90.35;97979.75;2223321;80;21292;-81
2021/08/02 00:18:16;;;;;;;5.85;4.90;;;;;;;14.91;90.55;97976.64;2223250;80;20972;-80
2021/08/02 00:21:17;;;;;;;5.72;4.72;;;;;;;14.92;90.94;97981.00;2222971;80;20917;-81
2021/08/02 00:24:17;;;;;;;4.78;4.37;;;;;;;14.93;90.62;97979.66;2222940;80;20935;-80
2021/08/02 00:27:18;;;;;;;6.10;4.08;;;;;;;14.94;90.53;97977.90;2222927;80;20912;-80
2021/08/02 00:30:19;;;;;;;7.37;4.17;;;;;;;14.95;90.87;97971.75;2222879;80;20982;-79
2021/08/02 00:33:19;;;;;;;4.67;3.77;;;;;;;14.93;91.03;97972.22;2222731;80;20928;-80
2021/08/02 00:36:20;;;;;;;4.17;3.65;;;;;;;14.94;90.92;97974.82;2222693;80;20932;-80
2021/08/02 00:39:20;;;;;;;5.80;3.50;;;;;;;14.94;90.88;97985.78;2222697;80;20952;-81
2021/08/02 00:42:21;;;;;;;3.85;3.30;;;;;;;14.91;90.84;97987.15;2222722;80;21288;-81
2021/08/02 00:45:21;;;;;;;4.22;3.83;;;;;;;14.89;90.53;97989.80;2222493;80;21332;-79
2021/08/02 00:48:22;;;;;;;4.37;3.98;;;;;;;14.89;90.63;97993.75;2222457;80;20924;-80
2021/08/02 00:51:22;;;;;;;4.37;4.00;;;;;;;14.89;90.76;97999.45;2222443;80;20924;-81
2021/08/02 00:54:23;;;;;;;5.83;4.00;;;;;;;14.89;90.64;97995.52;2222193;80;20952;-80
2021/08/02 00:57:23;;;;;;;4.45;4.05;;;;;;;14.88;90.19;98001.66;2222412;80;21266;-80
2021/08/02 01:00:24;;;;;;;4.78;4.42;;;;;;;14.85;90.17;98006.53;2222210;80;20979;-80
2021/08/02 01:03:24;;;;;;;5.55;5.12;;;;;;;14.76;89.97;98015.02;2222348;80;20951;-81
2021/08/02 01:06:25;;;;;;;5.58;5.08;;;;;;;14.76;89.97;98015.02;2222389;80;20960;-81
2021/08/02 01:09:25;;;;;;;5.72;5.22;;;;;;;14.68;89.88;98016.44;2222573;80;21296;-80
2021/08/02 01:12:26;;;;;;;6.97;6.28;;;;;;;14.62;90.09;98011.30;2222592;80;20944;-80
2021/08/02 01:15:26;;;;;;;8.50;7.37;;;;;;;14.57;90.02;98012.69;2222502;80;20893;-80
2021/08/02 01:18:27;;;;;;;10.78;7.50;;;;;;;14.51;90.21;98007.55;2222214;80;20917;-80
2021/08/02 01:21:27;;;;;;;8.50;7.80;;;;;;;14.45;90.02;98006.78;2222314;80;20960;-80
2021/08/02 01:24:28;;;;;;;9.25;7.72;;;;;;;14.43;89.99;98019.94;2222195;80;20956;-81
2021/08/02 01:27:28;;;;;;;10.78;8.88;;;;;;;14.41;90.09;98034.81;2222236;80;20896;-80
2021/08/02 01:30:29;;;;;;;12.13;9.58;;;;;;;14.40;89.88;98040.95;2222222;80;21418;-80
2021/08/02 01:33:29;;;;;;;12.18;10.38;;;;;;;14.38;89.81;98044.50;2222381;80;21257;-79
2021/08/02 01:36:30;;;;;;;12.55;10.13;;;;;;;14.32;90.26;98041.08;2222417;80;20917;-80
2021/08/02 01:39:32;;;;;;;12.07;10.43;;;;;;;14.32;90.10;98040.21;2221855;80;20928;-80
2021/08/02 01:42:33;;;;;;;11.35;9.20;;;;;;;14.29;90.01;98038.50;2222243;80;21344;-81
2021/08/02 01:45:33;;;;;;;10.98;9.98;;;;;;;14.27;89.63;98038.97;2219951;80;21004;-82
2021/08/02 01:48:34;;;;;;;12.80;11.60;;;;;;;14.29;89.77;98061.26;2212082;80;20969;-81
2021/08/02 01:51:35;;;;;;;12.45;11.40;;;;;;;14.26;89.69;98066.11;2212778;81;20912;-79
2021/08/02 01:54:35;;;;;;;14.87;11.53;;;;;;;14.22;89.90;98057.86;2212617;81;20948;-82
2021/08/02 01:57:36;;;;;;;12.85;11.63;;;;;;;14.20;89.87;98064.02;2212320;81;21336;-81
2021/08/02 02:00:36;;;;;;;13.43;10.93;;;;;;;14.18;89.87;98055.31;2211762;81;21042;-82
2021/08/02 02:03:37;;;;;;;11.97;10.10;;;;;;;14.17;89.68;98049.64;2212265;81;21316;-83
2021/08/02 02:06:37;;;;;;;9.78;8.88;;;;;;;14.18;89.59;98055.31;2212114;81;21272;-79
2021/08/02 02:09:38;;;;;;;10.30;9.35;;;;;;;14.18;89.54;98054.86;2212032;80;20917;-81
2021/08/02 02:12:38;;;;;;;10.13;9.18;;;;;;;14.19;89.35;98063.16;2212256;81;20949;-82
2021/08/02 02:15:39;;;;;;;10.38;9.15;;;;;;;14.21;89.20;98061.38;2212199;81;20985;-82
2021/08/02 02:18:39;;;;;;;11.95;7.92;;;;;;;14.23;89.10;98063.53;2212403;80;21004;-80
2021/08/02 02:21:40;;;;;;;11.05;8.78;;;;;;;14.21;89.16;98067.08;2212418;80;20960;-81
2021/08/02 02:24:40;;;;;;;9.93;8.73;;;;;;;14.22;88.64;98070.98;2212210;80;20975;-82
2021/08/02 02:27:41;;;;;;;8.55;7.83;;;;;;;14.22;88.64;98070.98;2212466;81;20944;-82
2021/08/02 02:30:41;;;;;;;8.90;8.00;;;;;;;14.23;88.84;98084.98;2211873;80;21004;-82
2021/08/02 02:33:42;;;;;;;10.28;8.45;;;;;;;14.24;88.82;98090.65;2212323;80;20921;-79
2021/08/02 02:36:42;;;;;;;7.35;6.17;;;;;;;14.27;88.74;98086.67;2212143;80;20920;-81
2021/08/02 02:39:43;;;;;;;8.80;6.22;;;;;;;14.28;88.48;98088.41;2211929;80;21348;-81
2021/08/02 02:42:43;;;;;;;10.32;6.72;;;;;;;14.26;88.46;98083.62;2212397;80;21375;-81
2021/08/02 02:45:44;;;;;;;10.28;6.85;;;;;;;14.27;88.40;98084.05;2211905;80;20932;-82
2021/08/02 02:48:45;;;;;;;11.80;7.60;;;;;;;14.25;88.27;98081.88;2211796;80;20889;-79
2021/08/02 02:51:45;;;;;;;8.95;7.53;;;;;;;14.26;88.19;98080.55;2211753;80;20967;-81
2021/08/02 02:54:46;;;;;;;11.95;8.48;;;;;;;14.28;88.25;98094.97;2211886;80;20961;-80
2021/08/02 02:57:46;;;;;;;9.08;8.23;;;;;;;14.26;88.37;98097.61;2211562;80;20925;-81
2021/08/02 03:00:47;;;;;;;9.55;8.73;;;;;;;14.29;88.32;98099.33;2213546;80;21019;-81
2021/08/02 03:03:47;;;;;;;12.93;10.32;;;;;;;14.29;88.47;98100.64;2213840;80;21366;-82
2021/08/02 03:06:47;;;;;;;10.85;9.58;;;;;;;14.29;88.91;98101.50;2213984;81;20968;-81
2021/08/02 03:09:48;;;;;;;11.83;10.65;;;;;;;14.28;88.53;98099.77;2214071;80;20917;-84
2021/08/02 03:12:48;;;;;;;14.70;12.90;;;;;;;14.34;88.50;98111.94;2213792;81;20929;-82
2021/08/02 03:15:49;;;;;;;25.40;22.70;;;;;;;14.39;88.43;98116.67;2214189;81;20944;-81
2021/08/02 03:18:50;;;;;;;27.37;24.65;;;;;;;14.45;88.40;98127.56;2213956;81;20920;-81
2021/08/02 03:21:50;;;;;;;28.52;25.57;;;;;;;14.49;88.72;98122.24;2213482;81;20909;-79
2021/08/02 03:24:51;;;;;;;29.12;26.25;;;;;;;14.56;88.53;98130.89;2214101;81;21000;-81
2021/08/02 03:27:51;;;;;;;33.85;30.75;;;;;;;14.59;88.37;98123.83;2213288;81;20937;-80
2021/08/02 03:30:52;;;;;;;27.65;24.70;;;;;;;14.62;88.53;98130.80;2211508;81;20972;-81
2021/08/02 03:33:52;;;;;;;26.93;24.10;;;;;;;14.66;88.08;98128.09;2212123;81;20938;-81
2021/08/02 03:36:53;;;;;;;31.62;28.52;;;;;;;14.69;88.10;98139.45;2211752;81;20912;-82
2021/08/02 03:39:53;;;;;;;37.10;31.87;;;;;;;14.73;88.12;98134.57;2212375;81;20961;-81
2021/08/02 03:42:54;;;;;;;30.32;27.10;;;;;;;14.77;87.92;98141.09;2212617;81;20921;-81
2021/08/02 03:45:55;;;;;;;30.35;27.10;;;;;;;14.83;87.81;98142.75;2211953;80;21041;-81
2021/08/02 03:48:55;;;;;;;30.90;27.80;;;;;;;14.87;87.83;98150.56;2212000;81;20955;-82
2021/08/02 03:51:56;;;;;;;31.80;28.30;;;;;;;14.94;87.72;98157.91;2212065;81;20897;-80
2021/08/02 03:54:56;;;;;;;32.50;29.15;;;;;;;15.00;87.72;98167.44;2211981;81;20965;-82
2021/08/02 03:57:57;;;;;;;36.03;30.08;;;;;;;15.02;87.66;98169.59;2211982;81;21343;-82
2021/08/02 04:00:58;;;;;;;37.85;32.25;;;;;;;15.11;87.73;98174.70;2211141;81;21372;-81
2021/08/02 04:03:58;;;;;;;36.80;27.87;;;;;;;15.13;87.37;98182.98;2211353;81;20979;-81
2021/08/02 04:06:59;;;;;;;35.15;29.52;;;;;;;15.17;87.10;98187.30;2210701;81;21068;-82
2021/08/02 04:09:59;;;;;;;30.23;27.00;;;;;;;15.22;87.30;98184.14;2211281;81;21004;-81
2021/08/02 04:13:00;;;;;;;35.35;31.20;;;;;;;15.28;86.97;98183.16;2210998;81;20929;-81
2021/08/02 04:16:00;;;;;;;26.25;23.47;;;;;;;15.32;86.70;98182.22;2210671;81;20980;-81
2021/08/02 04:19:01;;;;;;;18.98;16.97;;;;;;;15.39;86.81;98188.23;2211396;81;20909;-82
2021/08/02 04:22:01;;;;;;;22.27;18.65;;;;;;;15.43;86.56;98175.45;2212642;81;20905;-82
2021/08/02 04:25:02;;;;;;;24.75;21.52;;;;;;;15.48;86.26;98180.18;2211604;81;21442;-81
2021/08/02 04:28:03;;;;;;;19.85;17.95;;;;;;;15.52;86.10;98176.59;2211218;81;20928;-81
2021/08/02 04:31:03;;;;;;;19.45;17.42;;;;;;;15.57;86.09;98191.84;2211077;81;21043;-82
2021/08/02 04:34:04;;;;;;;23.60;20.70;;;;;;;15.60;85.65;98195.77;2211145;81;20931;-82
2021/08/02 04:37:04;;;;;;;25.37;19.25;;;;;;;15.60;85.64;98191.41;2211432;81;20964;-80
2021/08/02 04:40:05;;;;;;;23.22;18.27;;;;;;;15.63;85.51;98195.75;2211800;81;21025;-82
2021/08/02 04:43:05;;;;;;;20.45;17.85;;;;;;;15.68;85.41;98200.92;2211748;81;20979;-82
2021/08/02 04:46:06;;;;;;;22.52;17.55;;;;;;;15.66;85.44;98200.95;2213004;80;21018;-82
2021/08/02 04:49:06;;;;;;;18.98;17.02;;;;;;;15.66;85.25;98200.95;2222584;80;20943;-81
2021/08/02 04:52:07;;;;;;;22.42;18.02;;;;;;;15.70;85.00;98199.12;2222884;80;20936;-80
2021/08/02 04:55:07;;;;;;;18.27;16.48;;;;;;;15.70;85.00;98199.12;2223107;80;20937;-80
2021/08/02 04:58:08;;;;;;;22.17;20.10;;;;;;;15.75;85.11;98201.22;2223243;80;20975;-81
2021/08/02 05:01:08;;;;;;;27.27;24.32;;;;;;;15.76;85.02;98209.09;2222806;80;20967;-80
2021/08/02 05:04:09;;;;;;;31.48;25.88;;;;;;;15.77;84.92;98204.69;2222442;80;20920;-81
2021/08/02 05:07:12;;;;;;;30.37;25.27;;;;;;;15.79;84.79;98209.03;2222664;80;20959;-80
2021/08/02 05:10:13;;;;;;;32.87;26.00;;;;;;;15.85;85.01;98209.36;2222942;80;20944;-80
2021/08/02 05:13:15;;;;;;;38.35;27.10;;;;;;;15.87;84.92;98215.46;2222567;80;20976;-80
2021/08/02 05:16:15;;;;;;;35.85;29.42;;;;;;;15.90;84.57;98216.72;2222558;80;21031;-81
2021/08/02 05:19:16;;;;;;;30.35;26.50;;;;;;;15.94;84.61;98215.76;2223128;80;20936;-80
2021/08/02 05:22:16;;;;;;;32.85;26.10;;;;;;;15.98;84.52;98225.33;2223020;80;20901;-82
2021/08/02 05:25:17;;;;;;;26.62;23.87;;;;;;;15.99;84.12;98228.38;2223259;80;20990;-82
2021/08/02 05:28:19;;;;;;;31.02;25.40;;;;;;;15.99;84.08;98234.09;2223197;80;21363;-81
2021/08/02 05:31:20;;;;;;;33.85;24.65;;;;;;;16.07;84.18;98234.81;2222855;80;21043;-82
2021/08/02 05:34:20;;;;;;;22.85;20.45;;;;;;;16.10;84.08;98236.94;2222481;80;20985;-80
2021/08/02 05:37:21;;;;;;;30.37;25.32;;;;;;;16.12;83.73;98239.53;2221894;80;21324;-81
2021/08/02 05:40:21;;;;;;;30.60;26.27;;;;;;;16.18;83.78;98247.31;2221904;80;21329;-81
2021/08/02 05:43:22;;;;;;;26.45;23.40;;;;;;;16.23;83.74;98245.45;2222285;80;20956;-81
2021/08/02 05:46:22;;;;;;;25.00;21.65;;;;;;;16.33;83.22;98240.87;2222240;80;20976;-83
2021/08/02 05:49:23;;;;;;;26.45;23.85;;;;;;;16.40;83.09;98239.84;2222921;80;20936;-80
2021/08/02 05:52:24;;;;;;;29.55;20.35;;;;;;;16.52;82.92;98244.43;2223830;80;21307;-82
2021/08/02 05:55:24;;;;;;;38.10;31.05;;;;;;;16.66;82.46;98248.56;2223099;80;20964;-81
2021/08/02 05:58:25;;;;;;;306.20;234.52;;;;;;;16.82;83.31;98248.19;2222621;80;20929;-80
2021/08/02 06:01:25;;;;;;;50.92;39.58;;;;;;;17.22;82.97;98251.21;2221772;80;20955;-81
2021/08/02 06:04:26;;;;;;;168.57;110.88;;;;;;;17.75;82.03;98255.20;2221649;80;21027;-80
2021/08/02 06:07:26;;;;;;;480.40;325.52;;;;;;;18.06;79.51;98257.88;2222787;80;21347;-78
2021/08/02 06:10:27;;;;;;;503.27;299.48;;;;;;;18.21;80.12;98267.19;2223582;80;20967;-79
2021/08/02 06:13:27;;;;;;;458.55;303.85;;;;;;;18.68;79.35;98264.98;2223604;80;20944;-79
2021/08/02 06:16:28;;;;;;;64.12;41.83;;;;;;;19.03;77.13;98266.09;2222732;80;20929;-79
2021/08/02 06:19:28;;;;;;;155.00;95.62;;;;;;;19.25;73.51;98268.95;2222533;80;20936;-79
2021/08/02 06:22:29;;;;;;;26.82;22.35;;;;;;;19.17;75.79;98279.37;2222328;80;20944;-79
2021/08/02 06:25:29;;;;;;;29.37;20.70;;;;;;;19.44;72.90;98281.59;2221976;80;20972;-78
2021/08/02 06:28:30;;;;;;;20.52;15.55;;;;;;;19.29;74.05;98278.98;2221871;80;20991;-79
2021/08/02 06:31:31;;;;;;;20.97;18.57;;;;;;;19.21;72.06;98279.69;2222078;80;21462;-78
2021/08/02 06:34:31;;;;;;;19.07;16.75;;;;;;;19.11;73.96;98284.86;2222137;80;20936;-78
2021/08/02 06:37:32;;;;;;;19.15;13.10;;;;;;;19.36;73.02;98286.67;2221314;80;21264;-78
2021/08/02 06:40:32;;;;;;;16.48;11.88;;;;;;;19.53;72.51;98286.16;2221620;80;20968;-78
2021/08/02 06:43:33;;;;;;;14.95;13.18;;;;;;;19.27;70.20;98297.55;2221739;80;20952;-78
2021/08/02 06:46:34;;;;;;;18.40;13.00;;;;;;;19.26;72.83;98297.61;2222059;80;21372;-78
2021/08/02 06:49:34;;;;;;;15.35;12.07;;;;;;;19.61;72.07;98296.03;2222194;80;21371;-78
2021/08/02 06:52:35;;;;;;;15.32;12.47;;;;;;;19.80;71.48;98293.64;2221862;80;20888;-79
2021/08/02 06:55:35;;;;;;;15.05;13.65;;;;;;;20.39;69.47;98300.02;2222043;80;20897;-78
2021/08/02 06:58:36;;;;;;;11.30;10.23;;;;;;;20.71;68.25;98308.11;2221869;80;20928;-78
2021/08/02 07:01:36;;;;;;;46.25;32.55;;;;;;;21.02;68.71;98307.84;2221712;80;21011;-79
2021/08/02 07:04:37;;;;;;;72.50;49.75;;;;;;;21.56;65.85;98307.46;2222558;80;20959;-78
2021/08/02 07:07:37;;;;;;;81.87;56.28;;;;;;;21.65;64.55;98307.55;2221893;80;20963;-77
2021/08/02 07:10:38;;;;;;;14.20;11.22;;;;;;;21.91;65.33;98310.47;2222286;80;20916;-78
2021/08/02 07:13:41;;;;;;;10.70;9.60;;;;;;;21.86;63.05;98324.42;2222476;80;20968;-78
2021/08/02 07:16:41;;;;;;;12.03;9.83;;;;;;;21.47;63.37;98317.59;2222188;80;21295;-78
2021/08/02 07:19:42;;;;;;;9.43;8.53;;;;;;;21.91;63.42;98320.64;2222343;80;20940;-78
2021/08/02 07:22:42;;;;;;;10.88;8.00;;;;;;;21.76;63.64;98315.10;2222456;80;20933;-78
2021/08/02 07:25:43;;;;;;;9.98;8.83;;;;;;;21.71;61.91;98317.95;2223239;80;20964;-78
2021/08/02 07:28:43;;;;;;;9.03;7.80;;;;;;;21.76;63.77;98323.07;2222514;80;20914;-78
2021/08/02 07:31:44;;;;;;;13.25;7.35;;;;;;;21.81;60.92;98325.08;2222347;80;21003;-78
2021/08/02 07:34:44;;;;;;;10.20;7.45;;;;;;;21.65;62.60;98329.26;2222488;80;20896;-79
2021/08/02 07:37:45;;;;;;;54.53;31.23;;;;;;;21.84;63.55;98331.59;2222300;80;20889;-78
2021/08/02 07:40:46;;;;;;;41.88;27.13;;;;;;;22.34;62.65;98324.61;2222475;80;20928;-78
2021/08/02 07:43:46;;;;;;;15.13;11.12;;;;;;;21.67;60.65;98330.92;2221928;80;21027;-77
2021/08/02 07:46:47;;;;;;;163.28;92.42;;;;;;;20.98;61.45;98325.66;2221182;80;21370;-78
2021/08/02 07:49:47;;;;;;;16.85;11.43;;;;;;;20.84;64.64;98338.58;2211498;81;20932;-78
2021/08/02 07:52:48;;;;;;;16.95;14.58;;;;;;;21.30;63.89;98335.52;2211901;81;20973;-78
2021/08/02 07:55:52;;;;;;;14.40;10.15;;;;;;;21.36;64.01;98330.44;2211405;81;20928;-77
2021/08/02 07:58:53;;;;;;;14.58;10.68;;;;;;;21.61;63.38;98335.16;2211037;81;20964;-78
2021/08/02 08:01:53;;;;;;;7.37;6.72;;;;;;;21.75;62.02;98338.14;2210452;81;21031;-79
2021/08/02 08:04:54;;;;;;;10.25;6.62;;;;;;;21.80;61.54;98333.51;2210381;80;20980;-77
2021/08/02 08:07:54;;;;;;;10.48;7.08;;;;;;;22.19;60.61;98345.61;2211128;80;20936;-78
2021/08/02 08:10:55;;;;;;;10.80;6.50;;;;;;;22.46;60.75;98344.02;2211378;80;20928;-78
2021/08/02 08:13:56;;;;;;;12.20;8.50;;;;;;;22.65;60.25;98340.97;2210286;81;21364;-77
2021/08/02 08:16:56;;;;;;;14.30;11.15;;;;;;;22.29;59.85;98347.87;2210542;80;21615;-78
2021/08/02 08:19:57;;;;;;;59.70;46.02;;;;;;;21.66;59.81;98353.09;2210404;81;20932;-77
2021/08/02 08:22:57;;;;;;;18.45;13.40;;;;;;;21.42;62.08;98348.77;2211061;81;20921;-78
2021/08/02 08:25:58;;;;;;;10.75;7.33;;;;;;;21.80;61.23;98351.24;2210376;81;20997;-78
2021/08/02 08:28:58;;;;;;;8.73;7.60;;;;;;;22.10;61.23;98346.47;2210154;80;20940;-77
2021/08/02 08:31:59;;;;;;;8.13;7.12;;;;;;;22.34;60.52;98353.85;2210247;81;21327;-77
2021/08/02 08:34:59;;;;;;;7.92;6.00;;;;;;;22.42;59.47;98349.93;2209173;80;21035;-78
2021/08/02 08:38:00;;;;;;;9.00;7.95;;;;;;;22.77;59.21;98347.06;2209690;80;20948;-78
2021/08/02 08:41:00;;;;;;;9.70;6.87;;;;;;;22.97;58.79;98352.84;2210586;81;21103;-77
2021/08/02 08:44:01;;;;;;;8.55;7.12;;;;;;;22.81;58.64;98356.67;2210270;80;20949;-78
2021/08/02 08:47:01;;;;;;;9.15;6.40;;;;;;;22.61;58.65;98358.00;2210886;80;20933;-78
2021/08/02 08:50:02;;;;;;;10.80;8.40;;;;;;;22.88;58.17;98359.45;2221110;80;21373;-77
2021/08/02 08:53:05;;;;;;;9.70;8.18;;;;;;;23.37;56.50;98365.62;2220900;80;20928;-77
2021/08/02 08:56:06;;;;;;;9.63;7.07;;;;;;;23.33;56.98;98370.70;2220779;80;20931;-77
2021/08/02 08:59:06;;;;;;;9.83;7.37;;;;;;;23.83;56.73;98370.99;2220982;80;21325;-78
2021/08/02 09:02:07;;;;;;;10.38;7.03;;;;;;;23.64;55.21;98376.35;2220660;80;21484;-77
2021/08/02 09:05:07;;;;;;;9.63;7.72;;;;;;;23.28;56.82;98370.91;2221366;80;21387;-77
2021/08/02 09:08:12;;;;;;;12.15;7.72;;;;;;;23.65;56.04;98375.42;2221238;80;20937;-76
2021/08/02 09:11:14;;;;;;;7.03;6.33;;;;;;;23.48;56.05;98377.99;2220599;80;20918;-77
2021/08/02 09:14:17;;;;;;;7.85;6.30;;;;;;;23.47;55.44;98377.13;2221059;80;20915;-77
2021/08/02 09:17:17;;;;;;;6.75;5.08;;;;;;;23.50;56.04;98376.98;2221159;80;20932;-78
2021/08/02 09:20:17;;;;;;;7.12;6.40;;;;;;;23.70;55.50;98378.72;2221230;80;21288;-77
2021/08/02 09:23:18;;;;;;;7.50;6.35;;;;;;;24.09;52.64;98381.69;2221328;80;20900;-77
2021/08/02 09:26:18;;;;;;;7.53;5.50;;;;;;;23.87;53.23;98385.89;2221183;80;21367;-77
2021/08/02 09:29:21;;;;;;;9.58;6.67;;;;;;;24.07;54.10;98376.44;2221273;80;21379;-77
2021/08/02 09:32:22;;;;;;;15.60;14.13;;;;;;;24.70;52.75;98375.94;2221432;80;21071;-79
2021/08/02 09:35:22;;;;;;;9.55;5.90;;;;;;;24.90;51.89;98371.73;2222310;80;21090;-78
2021/08/02 09:38:24;;;;;;;8.28;5.30;;;;;;;25.12;51.23;98376.81;2222424;80;20951;-79
2021/08/02 09:41:30;;;;;;;9.28;6.03;;;;;;;25.01;52.00;98380.06;2222174;80;20987;-79
2021/08/02 09:44:31;;;;;;;8.65;5.58;;;;;;;25.08;50.44;98383.27;2221897;80;21348;-77
2021/08/02 09:47:31;;;;;;;5.65;5.15;;;;;;;24.09;50.98;98377.69;2219782;80;20984;-78
2021/08/02 09:50:32;;;;;;;8.88;5.78;;;;;;;23.35;52.29;98393.66;2210805;80;20897;-78
2021/08/02 09:53:32;;;;;;;9.18;4.78;;;;;;;23.48;53.84;98384.19;2211168;80;21309;-78
2021/08/02 09:56:33;;;;;;;5.50;4.35;;;;;;;23.76;51.26;98384.22;2211435;80;20956;-78
2021/08/02 09:59:39;;;;;;;7.30;5.05;;;;;;;23.37;52.74;98383.80;2211432;81;20921;-78
2021/08/02 10:02:36;;;;;;;9.48;5.80;;;;;;;23.00;53.57;98391.77;2210001;80;21419;-77
2021/08/02 10:05:36;;;;;;;6.75;4.70;;;;;;;22.54;54.67;98397.30;2211130;80;21016;-78
2021/08/02 10:08:37;;;;;;;5.42;4.50;;;;;;;22.20;55.38;98413.80;2210963;81;21372;-77
2021/08/02 10:11:37;;;;;;;10.45;4.92;;;;;;;21.50;58.65;98420.56;2210966;80;20901;-78
2021/08/02 10:14:38;;;;;;;6.90;5.42;;;;;;;21.03;62.54;98417.48;2211198;80;20929;-79
2021/08/02 10:17:38;;;;;;;5.75;5.25;;;;;;;20.45;63.74;98415.56;2211721;80;20939;-80
2021/08/02 10:20:39;;;;;;;11.00;5.50;;;;;;;20.29;65.59;98409.89;2211155;80;20939;-80
2021/08/02 10:23:39;;;;;;;6.00;5.50;;;;;;;20.21;66.39;98411.48;2211354;81;20972;-79
2021/08/02 10:26:40;;;;;;;5.78;5.28;;;;;;;20.26;67.00;98411.32;2211947;80;20957;-79
2021/08/02 10:29:43;;;;;;;4.65;4.12;;;;;;;20.61;67.80;98411.45;2210783;80;21336;-79
2021/08/02 10:32:43;;;;;;;4.60;4.20;;;;;;;20.83;64.33;98409.80;2211526;80;21456;-80
2021/08/02 10:35:43;;;;;;;6.15;4.40;;;;;;;21.02;64.22;98414.44;2212434;80;20975;-80
2021/08/02 10:38:44;;;;;;;6.25;3.70;;;;;;;21.23;62.56;98413.66;2212719;81;20928;-78
2021/08/02 10:41:44;;;;;;;3.45;3.25;;;;;;;21.48;62.70;98405.16;2212831;80;20913;-80
2021/08/02 10:44:45;;;;;;;3.65;3.35;;;;;;;21.60;58.58;98399.36;2212797;80;21376;-79
2021/08/02 10:47:45;;;;;;;3.45;3.15;;;;;;;21.77;58.95;98400.52;2212355;80;20963;-79
2021/08/02 10:50:47;;;;;;;4.53;3.15;;;;;;;22.04;56.49;98399.87;2212960;80;20968;-80
2021/08/02 10:53:47;;;;;;;3.35;3.05;;;;;;;22.21;56.11;98400.91;2213259;80;20956;-81
2021/08/02 10:56:52;;;;;;;5.87;3.00;;;;;;;22.44;56.13;98403.05;2213387;81;20956;-80
2021/08/02 10:59:55;;;;;;;3.05;2.70;;;;;;;22.54;53.63;98406.61;2213379;81;20909;-80
2021/08/02 11:02:55;;;;;;;3.60;3.15;;;;;;;22.74;52.75;98405.73;2213575;81;21540;-79
2021/08/02 11:05:56;;;;;;;5.58;2.85;;;;;;;22.95;51.71;98399.95;2212528;80;20964;-80
2021/08/02 11:08:56;;;;;;;3.37;2.67;;;;;;;23.34;50.77;98393.73;2212837;80;21003;-80
2021/08/02 11:11:57;;;;;;;2.80;2.60;;;;;;;23.80;50.12;98381.80;2212577;81;20957;-80
2021/08/02 11:14:57;;;;;;;4.33;2.25;;;;;;;24.09;49.87;98386.55;2212747;80;20933;-78
2021/08/02 11:17:58;;;;;;;9.08;2.70;;;;;;;24.08;47.94;98391.49;2212313;80;20985;-80
2021/08/02 11:20:58;;;;;;;2.60;2.40;;;;;;;24.01;48.69;98391.41;2212270;80;20957;-80
2021/08/02 11:23:59;;;;;;;2.72;2.50;;;;;;;23.84;47.97;98395.38;2211322;80;20979;-80
2021/08/02 11:26:59;;;;;;;3.83;2.35;;;;;;;23.80;46.95;98389.33;2212605;80;20965;-80
2021/08/02 11:30:00;;;;;;;4.80;2.50;;;;;;;23.97;47.38;98397.83;2212838;80;20897;-80
2021/08/02 11:33:00;;;;;;;8.90;2.70;;;;;;;24.19;46.63;98393.63;2212056;80;21019;-79
2021/08/02 11:36:02;;;;;;;3.87;2.27;;;;;;;24.04;46.58;98404.58;2211711;80;20944;-81
2021/08/02 11:39:03;;;;;;;5.42;2.70;;;;;;;23.87;47.05;98399.69;2212274;81;20984;-81
2021/08/02 11:45:06;;;;;;;5.72;2.27;;;;;;;24.09;47.38;98409.22;2190394;81;21015;-80
2021/08/02 11:48:07;;;;;;;5.72;2.27;;;;;;;23.99;47.20;98401.28;2212721;80;21003;-81
2021/08/02 11:51:07;;;;;;;3.95;2.40;;;;;;;23.71;48.32;98404.90;2212479;80;21373;-78
2021/08/02 11:54:09;;;;;;;9.48;2.80;;;;;;;23.65;47.78;98417.18;2189474;81;21257;-80
2021/08/02 11:57:10;;;;;;;3.02;2.70;;;;;;;23.97;47.32;98420.95;2212795;80;20909;-79
2021/08/02 12:00:10;;;;;;;4.28;2.45;;;;;;;23.71;47.51;98412.89;2213962;80;20928;-80
2021/08/02 12:03:11;;;;;;;2.22;2.08;;;;;;;23.53;46.65;98411.08;2213021;80;20995;-80
2021/08/02 12:06:12;;;;;;;2.60;2.40;;;;;;;23.48;46.46;98413.95;2212514;81;20992;-80
2021/08/02 12:09:12;;;;;;;6.72;2.70;;;;;;;23.45;48.69;98425.62;2220455;80;20927;-80
2021/08/02 12:12:13;;;;;;;4.40;2.92;;;;;;;23.06;47.77;98435.41;2229705;80;20971;-80
2021/08/02 12:15:14;;;;;;;4.15;2.47;;;;;;;22.66;49.52;98430.48;2229363;80;20946;-83
2021/08/02 12:18:15;;;;;;;2.90;2.45;;;;;;;22.73;49.19;98431.94;2229670;80;20933;-83
2021/08/02 12:21:29;;;;;;;5.12;2.67;;;;;;;22.94;49.57;98426.64;2230039;80;20951;-80
2021/08/02 12:24:21;;;;;;;2.58;2.37;;;;;;;23.00;48.66;98430.36;2230121;79;20939;-81
2021/08/02 12:27:23;;;;;;;7.00;2.55;;;;;;;23.22;47.36;98424.45;2199570;80;20900;-80
2021/08/02 12:30:24;;;;;;;3.55;2.47;;;;;;;23.39;47.57;98423.67;2230239;80;20931;-79
2021/08/02 12:33:24;;;;;;;4.17;2.35;;;;;;;23.68;48.33;98417.03;2230092;80;20975;-81
2021/08/02 12:36:25;;;;;;;5.05;2.30;;;;;;;23.32;47.63;98420.43;2230166;80;20920;-80
2021/08/02 12:39:27;;;;;;;2.77;2.58;;;;;;;22.82;48.06;98420.92;2230302;80;20892;-81
2021/08/02 12:42:28;;;;;;;3.37;2.65;;;;;;;22.53;48.62;98419.48;2230298;80;21371;-80
2021/08/02 12:45:28;;;;;;;11.50;2.87;;;;;;;22.52;49.41;98429.72;2229438;80;20975;-81
2021/08/02 12:48:29;;;;;;;3.20;2.40;;;;;;;22.83;47.51;98422.66;2230038;79;20944;-79
2021/08/02 12:51:29;;;;;;;3.25;2.35;;;;;;;23.14;47.95;98419.48;2230328;80;20920;-80
2021/08/02 12:54:30;;;;;;;2.45;2.25;;;;;;;23.53;46.06;98415.07;2230781;80;21368;-80
2021/08/02 12:57:30;;;;;;;2.58;2.37;;;;;;;23.65;45.78;98419.84;2229769;80;21292;-81
2021/08/02 13:00:31;;;;;;;3.20;2.20;;;;;;;23.58;44.37;98410.42;2230294;80;20932;-81
2021/08/02 13:03:31;;;;;;;2.55;2.45;;;;;;;23.60;44.71;98408.55;2228699;80;21003;-79
2021/08/02 13:06:32;;;;;;;2.30;2.10;;;;;;;23.58;44.74;98404.62;2229473;80;20927;-78
2021/08/02 13:09:32;;;;;;;2.30;2.10;;;;;;;23.69;45.70;98408.11;2229015;80;20931;-80
2021/08/02 13:12:33;;;;;;;4.90;3.15;;;;;;;23.79;45.27;98410.72;2229015;80;20952;-78
2021/08/02 13:15:33;;;;;;;4.78;2.60;;;;;;;23.63;45.26;98397.74;2230385;80;20980;-81
2021/08/02 13:18:34;;;;;;;2.40;2.30;;;;;;;23.51;45.59;98396.03;2230205;80;20884;-81
2021/08/02 13:21:37;;;;;;;2.92;2.62;;;;;;;23.13;46.11;98403.11;2230359;80;20958;-81
2021/08/02 13:27:56;;;;;;;3.58;2.25;;;;;;;23.63;46.33;98397.27;2230912;80;20963;-81
2021/08/02 13:30:57;;;;;;;2.45;2.25;;;;;;;23.71;45.04;98402.23;2229993;80;21008;-82
2021/08/02 13:33:57;;;;;;;2.85;2.40;;;;;;;23.75;43.58;98398.02;2230027;80;20987;-81
2021/08/02 13:36:59;;;;;;;5.67;2.30;;;;;;;23.78;44.56;98398.33;2229630;80;21307;-80
2021/08/02 13:39:59;;;;;;;2.92;2.22;;;;;;;23.99;44.41;98391.95;2230356;80;20975;-82
2021/08/02 13:43:00;;;;;;;5.45;2.75;;;;;;;23.87;44.25;98395.22;2230548;80;21291;-81
2021/08/02 13:46:00;;;;;;;5.53;2.80;;;;;;;23.74;44.66;98392.76;2230427;80;20932;-81
2021/08/02 13:49:01;;;;;;;2.45;2.35;;;;;;;23.85;44.63;98394.43;2229517;79;20960;-82
2021/08/02 13:52:02;;;;;;;4.00;2.80;;;;;;;24.19;42.78;98398.09;2227279;80;20909;-82
2021/08/02 13:55:02;;;;;;;2.85;2.52;;;;;;;24.78;43.18;98396.41;2227159;80;20947;-81
2021/08/02 13:58:07;;;;;;;2.52;2.10;;;;;;;24.70;42.04;98395.48;2227618;80;20932;-81
2021/08/02 14:01:07;;;;;;;6.00;3.58;;;;;;;24.66;41.55;98400.59;2227604;80;21407;-82
2021/08/02 14:04:11;;;;;;;5.50;2.75;;;;;;;24.75;43.10;98389.43;2226815;80;20987;-83
2021/08/02 14:07:12;;;;;;;3.62;2.85;;;;;;;24.62;41.08;98395.02;2227074;80;20987;-82